Time;durP1;ratioP1;P1;durP2;ratioP2;P2;SDS_P1;SDS_P2;PMS_P1;PMS_P2;Temp;Humidity;BMP_temperature;BMP_pressure;BME280_temperature;BME280_humidity;BME280_pressure;Samples;Min_cycle;Max_cycle;Signal;HPM_P1;HPM_P2
2022/01/06 00:01:50;;;;;;;16.60;3.90;;;;;;;3.49;71.24;99497.44;4912313;29;20205;-79
2022/01/06 00:04:16;;;;;;;6.77;3.80;;;;;;;3.52;71.19;99505.13;4912817;29;20667;-79
2022/01/06 00:06:42;;;;;;;6.60;3.93;;;;;;;3.52;71.11;99497.31;4913409;29;20218;-79
2022/01/06 00:09:09;;;;;;;6.63;3.92;;;;;;;3.51;71.32;99496.47;4901092;29;20217;-79
2022/01/06 00:11:35;;;;;;;5.03;3.30;;;;;;;3.50;71.42;99489.56;4912376;29;20229;-79
2022/01/06 00:14:56;;;;;;;12.53;4.47;;;;;;;3.46;71.39;99494.97;4910811;29;20210;-79
2022/01/06 00:24:46;;;;;;;10.05;3.22;;;;;;;3.40;72.19;99501.19;4911405;29;20286;-79
2022/01/06 00:27:13;;;;;;;9.63;4.20;;;;;;;3.39;72.34;99503.88;4907086;29;20530;-79
2022/01/06 00:29:38;;;;;;;9.85;3.90;;;;;;;3.37;72.00;99506.50;4911971;29;20210;-79
2022/01/06 00:32:04;;;;;;;7.17;2.47;;;;;;;3.38;72.29;99503.03;4911064;29;20244;-79
2022/01/06 00:34:32;;;;;;;4.97;3.53;;;;;;;3.40;72.21;99503.78;4907337;29;20625;-79
2022/01/06 00:36:58;;;;;;;2.85;2.65;;;;;;;3.38;72.33;99508.22;4934749;28;20994;-79
2022/01/06 00:39:27;;;;;;;6.40;4.20;;;;;;;3.39;72.15;99509.91;4937469;28;20295;-79
2022/01/06 00:41:58;;;;;;;7.78;4.13;;;;;;;3.42;72.30;99503.75;4939732;28;20645;-82
2022/01/06 00:44:30;;;;;;;6.15;3.17;;;;;;;3.46;72.36;99505.34;4934318;28;20213;-81
2022/01/06 00:46:56;;;;;;;8.20;3.20;;;;;;;3.49;72.53;99505.22;4933906;28;20205;-78
2022/01/06 00:49:22;;;;;;;3.70;3.33;;;;;;;3.54;72.36;99508.50;5026600;23;20596;-77
2022/01/06 00:51:48;;;;;;;5.73;3.70;;;;;;;3.55;72.32;99515.38;4975532;28;20220;-76
2022/01/06 00:54:14;;;;;;;4.43;2.55;;;;;;;3.54;72.09;99514.53;4972937;28;20544;-77
2022/01/06 00:56:40;;;;;;;5.25;3.05;;;;;;;3.55;72.13;99517.97;4979475;28;20208;-79
2022/01/06 00:59:05;;;;;;;9.33;3.77;;;;;;;3.55;72.11;99512.78;4996012;28;20226;-78
2022/01/06 01:01:32;;;;;;;6.50;2.43;;;;;;;3.54;72.03;99518.91;4976424;28;20219;-78
2022/01/06 01:03:57;;;;;;;6.07;2.63;;;;;;;3.53;72.14;99514.59;4978276;28;20200;-77
2022/01/06 01:06:23;;;;;;;5.17;2.90;;;;;;;3.48;72.38;99524.28;4977666;28;20235;-78
2022/01/06 01:08:48;;;;;;;7.50;2.80;;;;;;;3.46;72.34;99526.13;4977854;28;20338;-77
2022/01/06 01:11:14;;;;;;;4.13;2.63;;;;;;;3.47;72.16;99528.66;4978046;28;20203;-79
2022/01/06 01:13:54;;;;;;;5.47;2.53;;;;;;;3.46;72.13;99529.56;4977334;28;20835;-78
2022/01/06 01:16:25;;;;;;;5.15;2.63;;;;;;;3.46;72.39;99518.34;4977520;28;20210;-78
2022/01/06 01:18:51;;;;;;;9.63;3.35;;;;;;;3.48;72.31;99532.09;4983885;28;20228;-78
2022/01/06 01:21:18;;;;;;;10.23;2.53;;;;;;;3.48;72.38;99524.28;4988187;28;20460;-77
2022/01/06 01:23:44;;;;;;;2.90;2.50;;;;;;;3.44;72.79;99533.13;4985385;28;20226;-78
2022/01/06 01:26:09;;;;;;;6.00;2.77;;;;;;;3.37;73.24;99542.00;4978502;28;20207;-79
2022/01/06 01:28:43;;;;;;;10.83;3.83;;;;;;;3.33;73.61;99542.13;4980524;28;20231;-79
2022/01/06 01:31:31;;;;;;;6.53;3.00;;;;;;;3.31;73.71;99538.72;4986415;28;20296;-78
2022/01/06 01:33:59;;;;;;;6.07;2.75;;;;;;;3.27;74.26;99547.53;4983456;28;20215;-77
2022/01/06 01:36:25;;;;;;;4.60;3.20;;;;;;;3.21;74.60;99542.53;4979072;28;20203;-79
2022/01/06 01:38:51;;;;;;;13.23;3.38;;;;;;;3.19;75.00;99543.53;4980531;28;20441;-77
2022/01/06 01:41:16;;;;;;;4.93;3.07;;;;;;;3.18;75.01;99553.03;4983199;28;20281;-78
2022/01/06 01:43:43;;;;;;;4.93;3.10;;;;;;;3.17;75.15;99563.47;4980820;28;20285;-78
2022/01/06 01:46:15;;;;;;;6.35;3.17;;;;;;;3.17;75.46;99550.50;4977266;28;20215;-78
2022/01/06 01:48:45;;;;;;;2.97;2.58;;;;;;;3.17;75.67;99556.53;4982434;28;20278;-78
2022/01/06 01:51:10;;;;;;;10.73;4.03;;;;;;;3.18;75.92;99544.41;4981755;28;20214;-78
2022/01/06 01:53:37;;;;;;;6.67;2.60;;;;;;;3.18;76.18;99549.59;4982054;28;20265;-77
2022/01/06 01:56:08;;;;;;;9.80;3.10;;;;;;;3.15;76.25;99553.13;4980576;28;20643;-79
2022/01/06 01:58:35;;;;;;;5.70;2.97;;;;;;;3.14;76.06;99555.81;4985254;28;20238;-78
2022/01/06 02:01:01;;;;;;;7.50;2.70;;;;;;;3.14;76.65;99561.00;4984514;28;20207;-78
2022/01/06 02:03:31;;;;;;;10.82;5.15;;;;;;;3.16;76.56;99572.13;4981989;28;20734;-77
2022/01/06 02:05:58;;;;;;;7.93;2.75;;;;;;;3.16;76.65;99570.41;4982511;28;20208;-78
2022/01/06 02:08:24;;;;;;;6.10;2.80;;;;;;;3.17;76.63;99569.50;4992308;28;20240;-78
2022/01/06 02:10:50;;;;;;;3.33;2.90;;;;;;;3.16;76.62;99570.41;4983897;28;20355;-77
2022/01/06 02:13:15;;;;;;;4.10;2.90;;;;;;;3.14;76.60;99571.38;4982060;28;20258;-78
2022/01/06 02:15:42;;;;;;;3.53;2.97;;;;;;;3.13;76.75;99561.88;4982804;28;21138;-78
2022/01/06 02:18:07;;;;;;;8.52;3.03;;;;;;;3.14;77.03;99566.19;4981903;28;20466;-78
2022/01/06 02:20:35;;;;;;;2.80;2.17;;;;;;;3.14;76.99;99574.81;4982706;28;20235;-78
2022/01/06 02:23:02;;;;;;;6.35;3.30;;;;;;;3.16;77.04;99583.41;4981076;28;20333;-77
2022/01/06 02:25:31;;;;;;;4.87;2.80;;;;;;;3.18;77.36;99581.56;4984067;28;20756;-78
2022/01/06 02:28:00;;;;;;;2.88;2.38;;;;;;;3.18;77.35;99584.16;4986540;28;20507;-78
2022/01/06 02:30:32;;;;;;;3.05;2.10;;;;;;;3.16;77.37;99578.22;4988298;28;20270;-77
2022/01/06 02:33:00;;;;;;;2.63;1.90;;;;;;;3.16;77.44;99591.19;4988376;28;20340;-77
2022/01/06 02:35:27;;;;;;;6.50;3.00;;;;;;;3.13;77.63;99583.47;4982841;28;21175;-77
2022/01/06 02:37:53;;;;;;;5.50;3.08;;;;;;;3.13;78.03;99588.66;4962800;28;20216;-78
2022/01/06 02:40:23;;;;;;;5.65;3.00;;;;;;;3.13;78.31;99587.81;4975755;28;20654;-77
2022/01/06 02:42:55;;;;;;;5.10;3.75;;;;;;;3.09;78.36;99592.28;4978927;28;20215;-77
2022/01/06 02:45:24;;;;;;;3.10;2.33;;;;;;;3.05;78.19;99588.06;4977428;28;20400;-77
2022/01/06 02:47:50;;;;;;;4.65;3.33;;;;;;;3.02;78.31;99591.63;4978941;28;20224;-77
2022/01/06 02:50:17;;;;;;;5.80;2.10;;;;;;;3.01;78.63;99589.09;4977667;28;20236;-78
2022/01/06 02:52:43;;;;;;;8.27;3.15;;;;;;;3.01;78.55;99589.94;4992782;28;20660;-77
2022/01/06 02:55:12;;;;;;;9.38;3.00;;;;;;;3.03;78.75;99600.28;4976300;28;20234;-78
2022/01/06 02:57:39;;;;;;;4.10;2.42;;;;;;;3.01;78.60;99592.53;4992238;28;20208;-77
2022/01/06 03:00:10;;;;;;;13.43;3.47;;;;;;;3.01;79.00;99584.75;4979303;28;20227;-78
2022/01/06 03:02:36;;;;;;;9.43;3.80;;;;;;;3.12;79.25;99579.19;4979024;28;20870;-77
2022/01/06 03:05:03;;;;;;;3.37;2.30;;;;;;;3.09;79.42;99592.28;4974443;28;20204;-78
2022/01/06 03:07:30;;;;;;;4.88;3.35;;;;;;;3.05;79.41;99593.25;4980327;28;20866;-77
2022/01/06 03:09:58;;;;;;;4.25;2.70;;;;;;;3.03;79.75;99588.16;4978874;28;20299;-78
2022/01/06 03:12:29;;;;;;;4.47;2.95;;;;;;;3.02;79.76;99588.19;4978255;28;20411;-77
2022/01/06 03:14:55;;;;;;;5.30;1.73;;;;;;;3.00;80.03;99590.00;4977229;28;20222;-77
2022/01/06 03:17:20;;;;;;;5.60;2.63;;;;;;;2.91;79.87;99590.28;4978249;28;20533;-78
2022/01/06 03:19:46;;;;;;;2.97;2.00;;;;;;;2.86;80.18;99591.28;4983716;28;20224;-78
2022/01/06 03:22:13;;;;;;;5.37;3.50;;;;;;;2.82;80.35;99597.47;4986513;28;20239;-78
2022/01/06 03:24:39;;;;;;;4.82;1.88;;;;;;;2.79;80.38;99601.91;4986228;28;21320;-78
2022/01/06 03:27:04;;;;;;;4.13;2.90;;;;;;;2.74;80.59;99598.63;4984749;28;20208;-78
2022/01/06 03:29:29;;;;;;;4.80;2.00;;;;;;;2.72;80.72;99601.25;4985329;28;20207;-78
2022/01/06 03:31:55;;;;;;;7.17;3.20;;;;;;;2.70;80.74;99602.19;4986468;28;20200;-78
2022/01/06 03:34:20;;;;;;;4.00;2.10;;;;;;;2.70;80.83;99610.84;4986950;28;20208;-78
2022/01/06 03:36:46;;;;;;;4.20;2.23;;;;;;;2.72;80.68;99609.03;4988207;28;20269;-78
2022/01/06 03:39:12;;;;;;;4.23;2.80;;;;;;;2.75;80.73;99615.84;4984964;28;20227;-77
2022/01/06 03:41:37;;;;;;;4.30;1.90;;;;;;;2.78;80.58;99618.34;4983011;28;20204;-78
2022/01/06 03:44:03;;;;;;;3.70;1.87;;;;;;;2.80;80.09;99624.34;4986287;28;20625;-78
2022/01/06 03:46:28;;;;;;;4.90;1.80;;;;;;;2.83;80.30;99621.66;4985353;28;20215;-78
2022/01/06 03:48:54;;;;;;;3.83;2.57;;;;;;;2.84;80.08;99624.22;4982200;28;20236;-78
2022/01/06 03:51:23;;;;;;;6.73;3.67;;;;;;;2.87;80.27;99626.72;4983373;28;20200;-77
2022/01/06 03:53:48;;;;;;;4.63;4.03;;;;;;;2.90;80.06;99630.09;4981118;28;20653;-77
2022/01/06 03:56:14;;;;;;;4.23;3.10;;;;;;;2.91;80.24;99630.03;4978771;28;20319;-77
2022/01/06 03:58:40;;;;;;;2.53;2.00;;;;;;;2.92;80.31;99630.88;4618934;28;5003812;-77
2022/01/06 04:01:06;;;;;;;4.57;2.50;;;;;;;2.90;80.06;99636.13;4977470;28;20928;-77
2022/01/06 04:03:31;;;;;;;4.75;2.20;;;;;;;2.90;80.63;99635.28;4979250;28;20479;-78
2022/01/06 04:05:57;;;;;;;3.60;1.70;;;;;;;2.85;80.86;99641.47;4979931;28;20208;-78
2022/01/06 04:08:23;;;;;;;6.00;3.00;;;;;;;2.82;81.08;99636.38;4977682;28;20223;-78
2022/01/06 04:10:48;;;;;;;4.73;2.20;;;;;;;2.77;81.12;99634.81;4978887;28;20214;-78
2022/01/06 04:13:13;;;;;;;4.17;3.67;;;;;;;2.76;81.44;99635.72;4970087;28;20359;-77
2022/01/06 04:15:39;;;;;;;7.00;3.50;;;;;;;2.75;81.57;99634.03;4972266;28;20303;-77
2022/01/06 04:18:04;;;;;;;12.33;3.20;;;;;;;2.73;81.63;99634.09;4970230;28;20210;-77
2022/01/06 04:20:30;;;;;;;6.77;3.13;;;;;;;2.73;81.70;99638.41;4973641;28;20746;-77
2022/01/06 04:22:55;;;;;;;3.13;2.83;;;;;;;2.73;81.73;99636.69;4973775;28;20238;-77
2022/01/06 04:25:21;;;;;;;3.00;2.70;;;;;;;2.74;81.80;99640.13;4974225;28;20235;-77
2022/01/06 04:27:46;;;;;;;4.67;3.07;;;;;;;2.75;81.51;99642.63;4971301;28;20254;-77
2022/01/06 04:30:12;;;;;;;10.47;2.37;;;;;;;2.76;81.27;99659.91;4973206;28;20247;-77
2022/01/06 04:32:38;;;;;;;2.60;2.40;;;;;;;2.77;81.38;99653.81;4987688;28;20777;-77
2022/01/06 04:35:05;;;;;;;4.47;2.30;;;;;;;2.76;81.44;99657.31;4972542;28;20207;-77
2022/01/06 04:37:31;;;;;;;5.53;2.70;;;;;;;2.72;81.59;99658.31;4972477;28;20474;-77
2022/01/06 04:39:56;;;;;;;6.50;2.13;;;;;;;2.71;81.51;99668.75;4972583;28;20223;-77
2022/01/06 04:42:22;;;;;;;4.70;2.87;;;;;;;2.71;81.76;99667.00;4972419;28;20458;-77
2022/01/06 04:44:47;;;;;;;4.53;2.80;;;;;;;2.71;81.80;99667.00;4645734;28;10000605;-77
2022/01/06 04:47:13;;;;;;;5.77;3.13;;;;;;;2.71;81.69;99677.38;4972344;28;20304;-77
2022/01/06 04:49:38;;;;;;;3.93;2.40;;;;;;;2.69;81.92;99675.72;4983150;28;20315;-77
2022/01/06 04:52:04;;;;;;;5.50;2.30;;;;;;;2.68;81.90;99676.63;4974759;28;20863;-77
2022/01/06 04:54:29;;;;;;;6.13;2.63;;;;;;;2.67;82.11;99683.53;4995636;28;20260;-77
2022/01/06 04:56:55;;;;;;;6.93;2.43;;;;;;;2.69;82.04;99691.28;4991523;28;20878;-77
2022/01/06 04:59:20;;;;;;;2.80;2.07;;;;;;;2.69;82.03;99689.53;4988635;28;20594;-77
2022/01/06 05:01:46;;;;;;;4.80;3.70;;;;;;;2.78;81.95;99694.44;4991373;28;20478;-77
2022/01/06 05:04:11;;;;;;;4.10;3.23;;;;;;;2.80;82.15;99704.75;4989108;28;20227;-77
2022/01/06 05:06:37;;;;;;;5.33;3.23;;;;;;;2.80;81.63;99695.22;4982075;28;20203;-77
2022/01/06 05:09:03;;;;;;;9.07;3.17;;;;;;;2.81;81.89;99704.72;4987632;28;20217;-76
2022/01/06 05:11:28;;;;;;;4.40;2.70;;;;;;;2.78;81.51;99704.81;4974667;28;20630;-77
2022/01/06 05:13:54;;;;;;;4.73;3.10;;;;;;;2.72;81.82;99704.97;4989344;28;20202;-76
2022/01/06 05:16:19;;;;;;;6.07;3.30;;;;;;;2.66;81.92;99705.19;4989736;28;21091;-77
2022/01/06 05:18:45;;;;;;;5.70;2.30;;;;;;;2.64;82.19;99707.81;4991534;28;20277;-77
2022/01/06 05:21:11;;;;;;;3.97;2.20;;;;;;;2.66;82.13;99707.78;4989600;28;20230;-77
2022/01/06 05:23:36;;;;;;;9.23;3.67;;;;;;;2.68;82.11;99698.22;4998828;28;20204;-77
2022/01/06 05:26:02;;;;;;;4.30;2.87;;;;;;;2.75;82.53;99712.66;4998052;28;21387;-77
2022/01/06 05:28:28;;;;;;;6.50;2.78;;;;;;;2.84;82.80;99711.56;4997026;28;21229;-77
2022/01/06 05:30:53;;;;;;;5.57;2.77;;;;;;;2.91;82.61;99705.28;4996327;28;20859;-77
2022/01/06 05:33:19;;;;;;;3.77;3.07;;;;;;;2.93;82.05;99707.84;4981784;28;20241;-77
2022/01/06 05:35:44;;;;;;;5.83;2.90;;;;;;;2.90;82.22;99710.53;4994980;28;20822;-78
2022/01/06 05:38:10;;;;;;;3.00;2.20;;;;;;;2.90;82.22;99713.13;4999586;28;20313;-78
2022/01/06 05:40:36;;;;;;;3.20;2.47;;;;;;;2.88;82.14;99719.19;4999029;28;21028;-78
2022/01/06 05:43:01;;;;;;;5.23;3.80;;;;;;;2.86;82.24;99718.41;4997771;28;20207;-78
2022/01/06 05:45:28;;;;;;;15.07;5.20;;;;;;;2.84;82.42;99715.00;5000556;28;20203;-78
2022/01/06 05:47:53;;;;;;;5.63;2.85;;;;;;;2.85;82.23;99721.88;4999340;28;20195;-78
2022/01/06 05:50:19;;;;;;;7.33;3.03;;;;;;;2.87;82.17;99716.66;4997043;28;20250;-78
2022/01/06 05:52:45;;;;;;;4.20;2.13;;;;;;;2.91;82.63;99720.84;4994525;28;20191;-79
2022/01/06 05:55:10;;;;;;;3.30;2.33;;;;;;;2.94;82.04;99725.09;5000215;28;20207;-78
2022/01/06 05:57:36;;;;;;;3.67;1.90;;;;;;;2.95;82.27;99719.88;4988904;28;20206;-78
2022/01/06 06:00:05;;;;;;;6.03;2.30;;;;;;;2.99;82.45;99724.06;4998061;28;20490;-78
2022/01/06 06:02:31;;;;;;;7.60;2.80;;;;;;;3.15;82.50;99732.22;4996127;28;20542;-78
2022/01/06 06:04:56;;;;;;;7.37;2.70;;;;;;;3.16;82.65;99728.75;4999831;28;20216;-79
2022/01/06 06:07:23;;;;;;;6.43;2.43;;;;;;;3.10;81.94;99740.13;4996837;28;20215;-79
2022/01/06 06:09:50;;;;;;;2.20;1.80;;;;;;;3.07;82.13;99744.59;4990099;28;20733;-79
2022/01/06 06:12:16;;;;;;;5.88;1.65;;;;;;;3.06;82.16;99741.16;4997442;28;20291;-78
2022/01/06 06:14:41;;;;;;;6.18;3.35;;;;;;;3.03;82.18;99740.41;4988632;28;20282;-78
2022/01/06 06:17:07;;;;;;;3.20;2.73;;;;;;;2.97;82.25;99741.44;4993174;28;20897;-78
2022/01/06 06:19:32;;;;;;;3.10;2.07;;;;;;;2.95;82.24;99744.97;4993832;28;20701;-78
2022/01/06 06:21:57;;;;;;;4.07;2.43;;;;;;;2.95;82.39;99752.75;4997030;28;20207;-78
2022/01/06 06:24:23;;;;;;;4.60;1.93;;;;;;;2.93;82.35;99744.16;4994716;28;20657;-78
2022/01/06 06:26:50;;;;;;;1.97;1.67;;;;;;;2.93;82.35;99745.00;4998983;28;20208;-78
2022/01/06 06:29:17;;;;;;;5.55;1.90;;;;;;;2.94;82.52;99748.44;4979750;28;20195;-78
2022/01/06 06:31:42;;;;;;;4.75;2.10;;;;;;;3.01;82.79;99749.97;4994651;28;20480;-77
2022/01/06 06:34:09;;;;;;;3.90;1.93;;;;;;;2.98;82.39;99752.66;4991236;28;20218;-78
2022/01/06 06:36:35;;;;;;;3.95;1.85;;;;;;;2.97;82.45;99753.53;4992149;28;20215;-78
2022/01/06 06:39:00;;;;;;;2.47;1.63;;;;;;;2.96;82.34;99746.66;4991924;28;20219;-78
2022/01/06 06:41:26;;;;;;;4.33;2.13;;;;;;;2.96;82.39;99746.66;4989973;28;20946;-78
2022/01/06 06:43:52;;;;;;;3.13;2.30;;;;;;;2.98;82.59;99750.06;4994422;28;20207;-78
2022/01/06 06:46:17;;;;;;;4.53;3.93;;;;;;;3.01;82.14;99744.78;4985837;28;20941;-77
2022/01/06 06:51:13;;;;;;;2.92;1.80;;;;;;;2.99;82.00;99743.97;4978280;28;20227;-87
2022/01/06 06:53:40;;;;;;;2.95;2.75;;;;;;;2.94;82.04;99749.28;4981223;28;20222;-86
2022/01/06 06:56:06;;;;;;;2.95;2.03;;;;;;;2.90;82.17;99739.06;4989143;28;20250;-86
2022/01/06 06:58:31;;;;;;;3.58;2.35;;;;;;;2.86;82.06;99749.53;4979307;28;20306;-86
2022/01/06 07:00:57;;;;;;;4.40;2.37;;;;;;;2.81;82.35;99751.41;4973496;28;20244;-86
2022/01/06 07:03:23;;;;;;;2.50;2.20;;;;;;;2.73;82.13;99755.97;4984936;28;20489;-85
2022/01/06 07:05:48;;;;;;;2.40;2.20;;;;;;;2.69;82.55;99756.09;4979427;28;20323;-86
2022/01/06 07:08:16;;;;;;;6.97;2.37;;;;;;;2.67;82.60;99756.16;4981301;28;20214;-85
2022/01/06 07:10:42;;;;;;;3.63;2.05;;;;;;;2.66;82.53;99763.06;4974135;28;20666;-86
2022/01/06 07:13:10;;;;;;;5.45;3.15;;;;;;;2.70;82.29;99762.97;4974687;28;20589;-86
2022/01/06 07:15:41;;;;;;;3.08;2.78;;;;;;;2.65;82.51;99765.72;4991186;28;21203;-85
2022/01/06 07:18:07;;;;;;;3.30;2.75;;;;;;;2.57;82.59;99765.94;4976999;28;20556;-86
2022/01/06 07:20:32;;;;;;;4.10;3.07;;;;;;;2.54;82.94;99772.94;4980613;28;21001;-85
2022/01/06 07:22:58;;;;;;;4.67;3.60;;;;;;;2.48;83.02;99778.31;4981954;28;20821;-86
2022/01/06 07:25:23;;;;;;;5.10;3.43;;;;;;;2.39;83.21;99771.63;4981676;28;20219;-85
2022/01/06 07:27:54;;;;;;;4.17;2.80;;;;;;;2.32;83.20;99778.75;4990838;28;20222;-86
2022/01/06 07:30:24;;;;;;;6.68;3.38;;;;;;;2.20;83.58;99785.09;4995968;28;20206;-86
2022/01/06 07:32:51;;;;;;;9.20;4.18;;;;;;;2.12;83.63;99784.44;4963344;28;20203;-86
2022/01/06 07:35:19;;;;;;;6.38;3.53;;;;;;;2.05;83.72;99797.59;4977145;28;20682;-85
2022/01/06 07:37:44;;;;;;;3.40;2.60;;;;;;;1.98;84.34;99790.00;4979258;28;20207;-86
2022/01/06 07:40:13;;;;;;;7.00;3.40;;;;;;;1.98;84.26;99790.00;4993399;28;20576;-85
2022/01/06 07:42:39;;;;;;;4.53;3.00;;;;;;;1.97;84.43;99798.66;4984299;28;20460;-86
2022/01/06 07:45:07;;;;;;;4.78;4.35;;;;;;;1.98;84.23;99815.06;4989486;28;20210;-85
2022/01/06 07:47:36;;;;;;;8.00;4.57;;;;;;;1.98;84.40;99812.47;4964376;28;20215;-86
2022/01/06 07:50:02;;;;;;;5.47;3.50;;;;;;;1.95;84.54;99818.56;4959671;28;20562;-87
2022/01/06 07:52:30;;;;;;;8.70;5.30;;;;;;;1.96;84.23;99822.00;4970924;28;20211;-86
2022/01/06 07:54:56;;;;;;;7.10;4.90;;;;;;;1.95;84.62;99822.91;4961887;28;20700;-85
2022/01/06 07:57:21;;;;;;;6.50;3.77;;;;;;;1.98;84.43;99830.59;4963512;28;20220;-86
2022/01/06 07:59:47;;;;;;;5.40;4.77;;;;;;;2.04;84.60;99827.00;4945769;28;20263;-85
2022/01/06 08:02:15;;;;;;;6.23;3.90;;;;;;;2.10;84.46;99830.25;4962893;28;20211;-86
2022/01/06 08:04:58;;;;;;;4.00;3.60;;;;;;;2.19;84.44;99824.88;4964646;28;20229;-86
2022/01/06 08:07:26;;;;;;;4.55;3.65;;;;;;;2.27;84.25;99829.84;4960138;28;20257;-86
2022/01/06 08:09:57;;;;;;;4.78;3.80;;;;;;;2.32;84.07;99838.38;4960852;28;20292;-86
2022/01/06 08:12:27;;;;;;;6.60;4.03;;;;;;;2.33;83.94;99840.06;4953221;28;20881;-86
2022/01/06 08:14:55;;;;;;;9.20;8.25;;;;;;;2.30;83.75;99840.13;4952384;28;20714;-86
2022/01/06 08:17:21;;;;;;;14.50;8.05;;;;;;;2.25;84.23;99847.19;4969886;28;20207;-86
2022/01/06 08:19:47;;;;;;;9.50;5.28;;;;;;;2.16;84.15;99845.69;4962720;28;20582;-86
2022/01/06 08:22:15;;;;;;;10.95;6.32;;;;;;;2.13;84.29;99852.66;4958972;28;20204;-85
2022/01/06 08:24:43;;;;;;;9.07;6.45;;;;;;;2.16;84.57;99850.00;4962087;28;20193;-86
2022/01/06 08:27:08;;;;;;;7.50;4.70;;;;;;;2.17;84.54;99851.72;4965267;28;20266;-85
2022/01/06 08:29:42;;;;;;;8.10;7.00;;;;;;;2.18;84.20;99856.00;4969722;28;20281;-86
2022/01/06 08:32:07;;;;;;;14.20;8.93;;;;;;;2.15;84.35;99843.13;4959994;28;21496;-86
2022/01/06 08:34:34;;;;;;;12.63;7.20;;;;;;;2.17;84.59;99843.94;4961402;28;20263;-86
2022/01/06 08:36:59;;;;;;;8.95;6.80;;;;;;;2.19;84.28;99845.59;4957506;28;20203;-86
2022/01/06 08:39:25;;;;;;;6.43;5.80;;;;;;;2.23;84.30;99838.59;4959429;28;20223;-86
2022/01/06 08:41:53;;;;;;;9.32;5.30;;;;;;;2.27;84.52;99842.81;4963558;28;20563;-86
2022/01/06 08:44:20;;;;;;;8.80;5.20;;;;;;;2.34;84.38;99851.28;4963557;28;20550;-85
2022/01/06 08:46:49;;;;;;;5.57;4.28;;;;;;;2.39;84.06;99859.78;4960614;28;20208;-86
2022/01/06 08:49:15;;;;;;;3.97;3.65;;;;;;;2.43;84.10;99858.78;4958155;28;20453;-86
2022/01/06 08:51:42;;;;;;;5.28;3.95;;;;;;;2.43;84.11;99851.00;4960762;28;20282;-86
2022/01/06 08:54:07;;;;;;;4.90;3.95;;;;;;;2.44;83.99;99861.34;4958728;28;20546;-86
2022/01/06 08:56:34;;;;;;;5.13;4.37;;;;;;;2.46;83.80;99863.03;4958786;28;20216;-86
2022/01/06 08:59:00;;;;;;;4.22;3.63;;;;;;;2.49;84.09;99865.59;4959879;28;20235;-86
2022/01/06 09:01:25;;;;;;;7.10;4.82;;;;;;;2.55;84.04;99868.00;4953972;28;20486;-86
2022/01/06 09:03:51;;;;;;;8.80;4.77;;;;;;;2.56;83.84;99861.91;4963493;28;20998;-86
2022/01/06 09:06:22;;;;;;;9.23;5.25;;;;;;;2.56;83.93;99872.28;4958361;28;20288;-86
2022/01/06 09:08:49;;;;;;;9.75;4.25;;;;;;;2.55;84.06;99868.84;4957847;28;20230;-86
2022/01/06 09:11:18;;;;;;;5.60;4.70;;;;;;;2.60;84.01;99876.53;4956590;28;20204;-86
2022/01/06 09:13:44;;;;;;;5.18;4.57;;;;;;;2.63;83.88;99874.69;4966749;28;20212;-87
2022/01/06 09:16:23;;;;;;;5.93;4.10;;;;;;;2.65;83.83;99867.72;4966353;28;20507;-87
2022/01/06 09:18:59;;;;;;;4.30;3.90;;;;;;;2.65;83.92;99875.50;4958584;28;20216;-86
2022/01/06 09:21:32;;;;;;;5.93;4.38;;;;;;;2.66;83.52;99866.81;4962269;28;20254;-87
2022/01/06 09:24:02;;;;;;;4.93;4.25;;;;;;;2.65;83.56;99882.44;4964839;28;20208;-87
2022/01/06 09:26:28;;;;;;;5.45;4.88;;;;;;;2.64;84.04;99883.31;4964622;28;20219;-86
2022/01/06 09:28:54;;;;;;;7.07;3.67;;;;;;;2.61;84.21;99875.63;4962766;28;20192;-87
2022/01/06 09:31:19;;;;;;;5.27;4.57;;;;;;;2.59;83.91;99880.88;4969573;28;20203;-86
2022/01/06 09:33:47;;;;;;;5.40;4.07;;;;;;;2.56;84.28;99886.09;4963436;28;20694;-86
2022/01/06 09:36:13;;;;;;;4.77;4.27;;;;;;;2.57;84.07;99882.63;4963650;28;20218;-86
2022/01/06 09:38:38;;;;;;;7.03;4.63;;;;;;;2.59;84.26;99887.75;4968579;28;20230;-86
2022/01/06 09:41:06;;;;;;;4.07;3.73;;;;;;;2.63;84.05;99889.41;4979483;28;20280;-86
2022/01/06 09:43:35;;;;;;;4.10;3.63;;;;;;;2.64;84.19;99889.34;4973544;28;20223;-86
2022/01/06 09:46:08;;;;;;;8.30;6.00;;;;;;;2.65;83.98;99892.81;4983118;28;20301;-87
2022/01/06 09:48:39;;;;;;;5.68;5.07;;;;;;;2.68;83.89;99895.31;4966704;28;20196;-86
2022/01/06 09:51:10;;;;;;;7.03;5.20;;;;;;;2.73;84.33;99892.56;4994078;28;20242;-86
2022/01/06 09:53:39;;;;;;;5.95;5.15;;;;;;;2.76;84.03;99900.31;4967138;28;20339;-86
2022/01/06 09:56:05;;;;;;;7.18;6.00;;;;;;;2.80;84.10;99896.72;4982880;28;20219;-86
2022/01/06 09:58:32;;;;;;;7.95;5.35;;;;;;;2.82;83.83;99895.78;4978266;28;20203;-86
2022/01/06 10:01:00;;;;;;;5.93;4.80;;;;;;;2.84;83.97;99901.78;4973452;28;22190;-86
2022/01/06 10:03:35;;;;;;;7.72;5.50;;;;;;;2.89;84.08;99899.09;4979882;28;20211;-86
2022/01/06 10:06:21;;;;;;;5.65;4.97;;;;;;;2.96;84.20;99894.56;4961283;28;20203;-85
2022/01/06 10:08:57;;;;;;;8.38;6.95;;;;;;;3.02;84.19;99902.16;4981018;28;20207;-86
2022/01/06 10:11:25;;;;;;;8.68;5.63;;;;;;;3.09;83.67;99901.94;4973242;28;20725;-85
2022/01/06 10:14:00;;;;;;;8.30;6.30;;;;;;;3.18;83.52;99905.19;4980856;28;20215;-86
2022/01/06 10:16:29;;;;;;;6.85;4.80;;;;;;;3.23;83.38;99909.34;4976198;28;20218;-86
2022/01/06 10:19:05;;;;;;;10.95;6.57;;;;;;;3.29;83.60;99909.19;4983358;28;20257;-86
2022/01/06 10:21:37;;;;;;;11.90;5.35;;;;;;;3.35;83.30;99905.56;4984939;28;20892;-86
2022/01/06 10:24:06;;;;;;;5.43;4.78;;;;;;;3.37;82.90;99902.91;4980512;28;20330;-87
2022/01/06 10:26:33;;;;;;;7.13;4.82;;;;;;;3.39;82.98;99919.28;4983593;28;20708;-86
2022/01/06 10:28:59;;;;;;;13.35;12.10;;;;;;;3.38;82.85;99904.63;4984815;28;20207;-86
2022/01/06 10:31:30;;;;;;;8.20;4.82;;;;;;;3.41;82.88;99909.72;4968463;28;21809;-86
2022/01/06 10:33:58;;;;;;;5.07;4.60;;;;;;;3.41;83.05;99912.31;4976247;28;20230;-86
2022/01/06 10:36:32;;;;;;;10.80;5.38;;;;;;;3.45;83.07;99908.72;4980549;28;20954;-86
2022/01/06 10:39:02;;;;;;;8.93;5.40;;;;;;;3.48;82.80;99911.22;4984558;28;20616;-86
2022/01/06 10:41:28;;;;;;;9.73;5.80;;;;;;;3.55;82.75;99910.16;4973465;28;20475;-86
2022/01/06 10:43:56;;;;;;;6.85;4.85;;;;;;;3.60;82.33;99905.66;4981473;28;20466;-85
2022/01/06 10:46:35;;;;;;;5.60;4.57;;;;;;;3.62;82.62;99916.88;4971782;28;20285;-86
2022/01/06 10:49:06;;;;;;;9.95;6.63;;;;;;;3.64;82.43;99911.63;4975669;28;20214;-86
2022/01/06 10:51:41;;;;;;;10.18;6.55;;;;;;;3.69;82.29;99909.72;4945418;28;20204;-85
2022/01/06 10:54:13;;;;;;;12.38;6.90;;;;;;;3.82;82.21;99913.66;4962731;28;20210;-85
2022/01/06 10:56:38;;;;;;;10.52;6.47;;;;;;;3.92;81.99;99917.66;4960482;28;20199;-86
2022/01/06 10:59:04;;;;;;;5.87;5.00;;;;;;;3.97;81.57;99917.53;4990034;28;20735;-85
2022/01/06 11:01:34;;;;;;;9.07;6.10;;;;;;;4.04;81.42;99906.03;4982352;28;20219;-85
2022/01/06 11:03:59;;;;;;;5.10;4.57;;;;;;;4.15;81.29;99910.88;4975908;28;20230;-86
2022/01/06 11:06:25;;;;;;;10.33;5.80;;;;;;;4.23;80.72;99901.06;4959369;28;20585;-85
2022/01/06 11:08:51;;;;;;;7.43;5.67;;;;;;;4.32;80.86;99906.00;4977893;28;20325;-86
2022/01/06 11:12:26;;;;;;;9.82;5.57;;;;;;;4.40;80.30;99906.59;4989963;28;20206;-85
2022/01/06 11:14:20;;;;;;;6.70;5.70;;;;;;;4.54;80.08;99902.66;4961004;28;20220;-85
2022/01/06 11:16:56;;;;;;;7.40;6.38;;;;;;;4.66;80.13;99897.88;4979704;28;20214;-86
2022/01/06 11:19:31;;;;;;;5.63;4.83;;;;;;;4.76;79.64;99901.00;4973106;28;20984;-86
2022/01/06 11:22:03;;;;;;;7.25;5.35;;;;;;;4.86;79.26;99893.72;4987576;28;20211;-86
2022/01/06 11:24:29;;;;;;;7.32;5.38;;;;;;;5.00;79.09;99899.28;4988156;28;20207;-86
2022/01/06 11:27:10;;;;;;;14.90;6.40;;;;;;;5.13;78.31;99896.22;4989979;28;20225;-85
2022/01/06 11:29:41;;;;;;;8.02;5.75;;;;;;;5.16;77.75;99894.38;4976709;28;20191;-85
2022/01/06 11:32:21;;;;;;;7.78;5.90;;;;;;;5.16;77.77;99896.13;4991211;28;20661;-85
2022/01/06 11:35:02;;;;;;;14.90;5.75;;;;;;;5.17;77.40;99890.03;4980014;28;20196;-85
2022/01/06 11:37:50;;;;;;;9.38;5.65;;;;;;;5.21;77.31;99894.19;4979415;28;20703;-85
2022/01/06 11:40:30;;;;;;;14.40;5.75;;;;;;;5.20;77.51;99895.09;4983719;28;20282;-86
2022/01/06 11:42:57;;;;;;;13.82;5.88;;;;;;;5.19;77.20;99894.28;4974052;28;20278;-86
2022/01/06 11:45:22;;;;;;;13.93;6.15;;;;;;;5.17;76.87;99895.22;4983849;28;20211;-85
2022/01/06 11:48:01;;;;;;;7.73;5.47;;;;;;;5.17;77.07;99890.03;4982470;28;20223;-85
2022/01/06 11:50:27;;;;;;;8.05;6.57;;;;;;;5.14;77.01;99893.59;4977657;28;20491;-86
2022/01/06 11:53:00;;;;;;;14.77;7.53;;;;;;;5.09;77.15;99892.91;4975138;28;20272;-85
2022/01/06 11:55:35;;;;;;;9.32;5.90;;;;;;;4.99;77.06;99894.97;4977115;28;20207;-85